createdAt,value
2023-05-05T07:02:20.813Z,59.33
2023-05-05T07:05:23.686Z,60.91
2023-05-05T07:08:26.055Z,60.98
2023-05-05T07:11:28.808Z,60.28
2023-05-05T07:14:31.272Z,60.15
2023-05-05T07:17:35.318Z,61.07
2023-05-05T07:20:37.480Z,61.32
2023-05-05T07:23:40.619Z,60.69
2023-05-05T07:26:43.009Z,58.97
2023-05-05T07:29:45.694Z,57.10
2023-05-05T07:32:49.870Z,56.94
2023-05-05T07:35:52.527Z,57.63
2023-05-05T07:38:54.972Z,58.51
2023-05-05T07:41:57.643Z,59.20
2023-05-05T07:45:00.132Z,59.29
2023-05-05T07:48:04.477Z,59.61
2023-05-05T07:51:07.092Z,59.31
2023-05-05T07:54:09.797Z,60.22
2023-05-05T07:57:12.244Z,63.58
2023-05-05T08:00:15.900Z,60.96
2023-05-05T08:03:24.534Z,60.31
2023-05-05T08:06:28.530Z,61.20
2023-05-05T08:09:31.360Z,59.39
2023-05-05T08:12:33.909Z,56.84
2023-05-05T08:15:36.889Z,60.38
2023-05-05T08:18:40.641Z,60.85
2023-05-05T08:21:43.407Z,60.46
2023-05-05T08:24:46.231Z,59.86
2023-05-05T08:27:48.956Z,59.37
2023-05-05T08:30:51.440Z,58.36
2023-05-05T08:33:55.876Z,58.90
2023-05-05T08:36:58.500Z,59.83
2023-05-05T08:40:01.382Z,61.68
2023-05-05T08:43:03.970Z,59.74
2023-05-05T08:46:07.267Z,60.90
2023-05-05T08:49:14.136Z,59.50
2023-05-05T08:52:18.367Z,59.32
2023-05-05T08:55:24.183Z,57.51
2023-05-05T08:58:28.971Z,58.31
2023-05-05T09:01:32.114Z,58.77
2023-05-05T09:04:36.259Z,59.13
2023-05-05T09:07:41.280Z,58.16
2023-05-05T09:10:44.697Z,57.38
2023-05-05T09:13:47.514Z,56.22
2023-05-05T09:16:50.246Z,57.04
2023-05-05T09:20:04.109Z,58.25
2023-05-05T09:23:10.236Z,58.81
2023-05-05T09:26:12.611Z,57.55
2023-05-05T09:29:18.669Z,59.25
2023-05-05T09:32:21.093Z,59.00
2023-05-05T09:35:25.730Z,61.31
2023-05-05T09:38:28.239Z,59.46
2023-05-05T09:41:37.500Z,59.32
2023-05-05T09:44:40.686Z,60.10
2023-05-05T09:47:43.397Z,59.35
2023-05-05T09:50:47.201Z,57.83
2023-05-05T09:53:50.083Z,59.25
2023-05-05T09:56:52.697Z,59.98
2023-05-05T09:59:57.296Z,58.17
2023-05-05T10:03:01.914Z,59.63
2023-05-05T10:06:07.763Z,60.74
2023-05-05T10:09:10.746Z,61.23
2023-05-05T10:12:13.482Z,62.49
2023-05-05T10:15:16.019Z,61.69
2023-05-05T10:18:21.573Z,60.14
2023-05-05T10:21:25.501Z,56.66
2023-05-05T10:24:38.754Z,55.68
2023-05-05T10:27:43.305Z,57.08
2023-05-05T10:30:46.658Z,54.89
2023-05-05T10:33:52.060Z,52.25
2023-05-05T10:36:56.951Z,52.94
2023-05-05T10:39:59.433Z,54.29
2023-05-05T10:43:02.310Z,54.67
2023-05-05T10:46:05.011Z,55.14
2023-05-05T10:49:13.511Z,53.70
2023-05-05T10:52:23.427Z,54.52
2023-05-05T10:55:30.365Z,53.04
2023-05-05T10:58:47.077Z,54.88
2023-05-05T11:01:54.389Z,55.25
2023-05-05T11:05:22.323Z,53.16
2023-05-05T11:08:27.054Z,52.43
2023-05-05T11:11:59.403Z,53.96
2023-05-05T11:15:37.358Z,52.85
2023-05-05T11:18:40.502Z,52.09
2023-05-05T11:21:59.750Z,53.41
2023-05-05T11:25:18.465Z,57.95
2023-05-05T11:28:23.142Z,54.11
2023-05-05T11:31:25.616Z,57.29
2023-05-05T11:34:28.424Z,55.68
2023-05-05T11:37:30.922Z,57.11
2023-05-05T11:40:35.068Z,53.68
2023-05-05T11:43:37.506Z,53.37
2023-05-05T11:46:40.603Z,49.05
2023-05-05T11:49:43.171Z,51.70
2023-05-05T11:52:45.885Z,53.74
2023-05-05T11:55:49.904Z,51.21
2023-05-05T11:59:07.045Z,50.65
2023-05-05T12:02:10.296Z,52.57
2023-05-05T12:05:14.861Z,51.74
2023-05-05T12:08:16.938Z,48.70
2023-05-05T12:11:21.161Z,49.87
2023-05-05T12:14:23.946Z,50.55
2023-05-05T12:17:34.614Z,48.97
2023-05-05T12:20:37.228Z,49.04
2023-05-05T12:23:39.968Z,49.53
2023-05-05T12:26:43.827Z,49.84
2023-05-05T12:29:46.580Z,48.41
2023-05-05T12:32:48.979Z,48.65
2023-05-05T12:35:51.730Z,47.56
2023-05-05T12:38:54.188Z,47.72
2023-05-05T12:42:03.501Z,46.75
2023-05-05T12:45:08.248Z,47.44
2023-05-05T12:48:23.270Z,46.23
2023-05-05T12:51:27.136Z,47.29
2023-05-05T12:54:30.206Z,47.33
2023-05-05T12:57:34.157Z,47.27
2023-05-05T13:00:37.104Z,44.73
2023-05-05T13:03:39.508Z,46.57
2023-05-05T13:06:43.452Z,46.17
2023-05-05T13:09:46.202Z,45.46
2023-05-05T13:12:50.493Z,45.77
2023-05-05T13:15:53.192Z,46.66
2023-05-05T13:18:57.656Z,45.18
2023-05-05T13:22:00.002Z,45.20
2023-05-05T13:25:02.764Z,47.50
2023-05-05T13:28:07.132Z,46.26
2023-05-05T13:31:10.035Z,47.43
2023-05-05T13:34:12.475Z,46.08
2023-05-05T13:37:15.295Z,46.73
2023-05-05T13:40:17.718Z,43.77
2023-05-05T13:43:22.132Z,44.57
2023-05-05T13:46:24.857Z,45.32
2023-05-05T13:49:27.825Z,45.58
2023-05-05T13:52:32.399Z,45.39
2023-05-05T13:55:36.383Z,43.95
2023-05-05T13:58:40.169Z,46.00
2023-05-05T14:01:42.960Z,44.73
2023-05-05T14:04:45.685Z,45.05
2023-05-05T14:07:48.202Z,44.30
2023-05-05T14:10:52.058Z,43.38
2023-05-05T14:13:56.611Z,44.67
2023-05-05T14:16:59.297Z,45.01
2023-05-05T14:20:01.878Z,45.96
2023-05-05T14:23:04.523Z,44.24
2023-05-05T14:26:08.876Z,44.39
2023-05-05T14:29:13.013Z,46.12
2023-05-05T14:32:15.498Z,46.97
2023-05-05T14:35:18.499Z,47.39
2023-05-05T14:38:21.098Z,45.86
2023-05-05T14:41:24.171Z,42.74
2023-05-05T14:44:28.402Z,46.47
2023-05-05T14:47:31.147Z,45.24
2023-05-05T14:50:33.685Z,44.55
2023-05-05T14:53:36.454Z,46.52
2023-05-05T14:56:39.042Z,45.18
2023-05-05T14:59:43.450Z,43.09
2023-05-05T15:02:48.019Z,42.67
2023-05-05T15:05:50.970Z,45.76
2023-05-05T15:08:53.413Z,45.04
2023-05-05T15:11:56.295Z,45.65
2023-05-05T15:15:00.058Z,46.21
2023-05-05T15:18:02.745Z,44.72
2023-05-05T15:21:05.206Z,43.67
2023-05-05T15:24:08.119Z,45.13
2023-05-05T15:27:10.542Z,42.77
2023-05-05T15:30:15.147Z,45.08
2023-05-05T15:33:17.613Z,46.62
2023-05-05T15:36:22.715Z,45.86
2023-05-05T15:39:25.262Z,45.39
2023-05-05T15:42:28.005Z,46.13
2023-05-05T15:45:31.843Z,46.41
2023-05-05T15:48:35.696Z,45.25
2023-05-05T15:51:37.868Z,47.51
2023-05-05T15:54:41.415Z,46.14
